Airfield :
LOGIN :

Register | Disclaimer

   EN    FR    IT 

 










Legend :    VFR   Marginal VFR   IFR   Intensive IFR   Very Intensive IFR
Visi :
Ceiling :
>= 8 km
>= 3000ft
5 to 8 km
1000 to 3000 ft
1500m to 5 km
500 to 1000 ft
800 to 1500m
200 to 500 ft
< 800m
< 200 ft
Symbols :   Thunderstorms  Fog  Heavy snow  Heavy precipitations  Wind > 20 kt
SIGMETs :     Misc.  Thunderstorms  Icing  Turbulence  Mountain Waves  Volcanic Ashes






- Airport Elevation : 297 ft


EGVP - Middle Wallop

CURRENT METAR :
  • 241722Z 26019G31KT 9999 FEW023 BKN180 11/07 Q1005 NOSIG RMK BLU BLU

EXPIRED METARs :
  • 241650Z 25019G29KT 9999 FEW018 BKN031 12/08 Q1005 TEMPO SCT018 RMK BLU TEMPO WHT
  • 241622Z 25015KT 9999 FEW014 BKN018 BKN039 11/09 Q1005 TEMPO 5000 -RA SCT014 RMK WHT TEMPO GRN
  • 241550Z 24017KT 9999 7000SE BKN014 BKN023 11/10 Q1005 TEMPO 24016G26KT BKN015 RMK GRN TEMPO WHT
  • 241521Z 23016KT 9999 BKN010 BKN017 11/10 Q1005 TEMPO 23016G26KT 5000 -RA RMK GRN TEMPO GRN
  • 241450Z 23014KT 9999 BKN009 OVC017 11/10 Q1005 TEMPO 23015G25KT 5000 -RA RMK GRN TEMPO GRN

TAF TAF EGVP
Valid from the 24 at 18:00 until the 25 at 03:00 UTC


241656Z 2418/2503 23020G32KT 9999 SCT030
BECMG 2418/2419 25014KT
TEMPO 2419/2420 25015G25KT
ATIS : +44 1980 674 142



MET'MAP, your aeronautical weather chart ! - Copyright ORBIFLY December 2007 - Disclaimer

ORBIFLY MET'MAP TEAM :

Programming & Development : Alexandra Zaïnal
Concept & original design : Baudouin d'Aumeries
Assistance for programming : Marc-Olivier Méhu
Technical & hardware support : Manuel Goepfert

Contact : metmap@orbifly.com




SOURCES & CREDITS :

   NOAA